Time;durP1;ratioP1;P1;durP2;ratioP2;P2;SDS_P1;SDS_P2;PMS_P1;PMS_P2;Temp;Humidity;BMP_temperature;BMP_pressure;BME280_temperature;BME280_humidity;BME280_pressure;Samples;Min_cycle;Max_cycle;Signal;HPM_P1;HPM_P2
2023/09/20 00:00:32;;;;;;;5.00;2.10;;;;;;;22.05;58.82;100179.47;5058650;28;20433;-65
2023/09/20 00:02:58;;;;;;;3.30;2.00;;;;;;;22.04;58.42;100180.72;5086104;28;20475;-65
2023/09/20 00:05:23;;;;;;;5.60;2.23;;;;;;;22.01;59.26;100182.34;5062560;28;20457;-65
2023/09/20 00:07:54;;;;;;;4.40;2.20;;;;;;;22.02;59.24;100180.31;5070749;28;21092;-65
2023/09/20 00:10:22;;;;;;;5.03;2.30;;;;;;;22.01;59.49;100173.72;5085638;28;20244;-65
2023/09/20 00:12:48;;;;;;;6.90;1.80;;;;;;;22.02;59.16;100184.00;5083758;28;20436;-65
2023/09/20 00:15:13;;;;;;;3.83;2.23;;;;;;;22.04;59.31;100172.94;5090795;28;20467;-65
2023/09/20 00:17:39;;;;;;;7.13;2.60;;;;;;;22.03;58.96;100170.47;5073930;28;20606;-65
2023/09/20 00:20:12;;;;;;;3.33;2.00;;;;;;;22.01;59.20;100167.97;5073491;28;20158;-65
2023/09/20 00:22:44;;;;;;;11.13;2.67;;;;;;;22.01;59.70;100173.72;5069636;28;20281;-65
2023/09/20 00:25:13;;;;;;;3.83;2.40;;;;;;;21.99;59.25;100164.72;5053509;28;20464;-65
2023/09/20 00:27:39;;;;;;;4.80;2.03;;;;;;;22.01;58.90;100170.03;5037507;28;20770;-65
2023/09/20 00:30:10;;;;;;;4.47;2.47;;;;;;;21.99;59.31;100167.59;5072027;28;20449;-65
2023/09/20 00:32:39;;;;;;;4.30;2.40;;;;;;;21.98;59.14;100157.28;5062921;28;20214;-66
2023/09/20 00:35:10;;;;;;;4.43;2.07;;;;;;;21.98;59.08;100163.03;5071776;28;20828;-65
2023/09/20 00:37:39;;;;;;;5.77;2.33;;;;;;;21.98;58.72;100156.47;5071841;28;20463;-65
2023/09/20 00:40:08;;;;;;;4.20;2.27;;;;;;;21.98;59.53;100157.28;5075421;28;20484;-66
2023/09/20 00:42:34;;;;;;;9.83;2.30;;;;;;;21.98;59.32;100160.16;5074447;28;20482;-66
2023/09/20 00:45:01;;;;;;;4.47;1.93;;;;;;;21.99;59.99;100163.88;5053558;28;20916;-66
2023/09/20 00:47:27;;;;;;;4.70;1.90;;;;;;;21.99;59.51;100170.47;5071945;28;20155;-66
2023/09/20 00:49:52;;;;;;;4.40;2.20;;;;;;;21.98;59.05;100160.16;5074106;28;20517;-66
2023/09/20 00:52:18;;;;;;;3.70;2.13;;;;;;;21.97;59.77;100167.16;5056096;28;20218;-66
2023/09/20 00:54:43;;;;;;;6.73;2.13;;;;;;;21.96;59.00;100159.75;5071085;28;20186;-66
2023/09/20 00:57:09;;;;;;;4.10;2.67;;;;;;;21.97;59.52;100163.47;5068302;28;20203;-66
2023/09/20 00:59:35;;;;;;;5.47;2.20;;;;;;;21.96;59.65;100165.50;5053280;28;20155;-65
2023/09/20 01:02:00;;;;;;;5.20;2.23;;;;;;;21.96;59.72;100161.78;5057501;28;20459;-65
2023/09/20 01:04:28;;;;;;;3.80;2.40;;;;;;;21.97;59.79;100151.97;5053966;28;20186;-66
2023/09/20 01:06:53;;;;;;;5.67;2.50;;;;;;;21.96;60.06;100150.31;5069870;28;20159;-66
2023/09/20 01:09:20;;;;;;;6.53;2.33;;;;;;;21.96;59.30;100154.00;5071397;28;20418;-66
2023/09/20 01:11:47;;;;;;;6.17;1.83;;;;;;;21.95;59.13;100154.41;5073029;28;20259;-66
2023/09/20 01:14:16;;;;;;;3.20;2.00;;;;;;;21.92;59.08;100150.31;5079424;28;20476;-66
2023/09/20 01:16:41;;;;;;;5.17;2.60;;;;;;;21.93;60.03;100154.00;5076606;28;20283;-66
2023/09/20 01:19:06;;;;;;;4.60;2.10;;;;;;;21.92;59.43;100155.25;5079231;28;21158;-66
2023/09/20 01:21:43;;;;;;;4.77;2.03;;;;;;;21.92;59.19;100163.88;5072556;28;20672;-66
2023/09/20 01:24:08;;;;;;;4.43;2.33;;;;;;;21.91;59.50;100167.94;5055141;28;20341;-66
2023/09/20 01:26:34;;;;;;;4.67;2.60;;;;;;;21.91;59.00;100162.19;5062757;28;20413;-66
2023/09/20 01:29:00;;;;;;;4.50;2.30;;;;;;;21.91;59.08;100160.16;5060320;28;20182;-66
2023/09/20 01:31:26;;;;;;;4.83;2.30;;;;;;;21.91;59.05;100150.69;5059660;28;20424;-66
2023/09/20 01:33:52;;;;;;;6.67;2.03;;;;;;;21.90;59.54;100152.78;5069960;28;20171;-66
2023/09/20 01:36:18;;;;;;;4.97;2.47;;;;;;;21.84;59.52;100157.28;5035982;28;20648;-66
2023/09/20 01:38:43;;;;;;;5.07;2.20;;;;;;;21.87;59.32;100156.44;5065087;28;20441;-66
2023/09/20 01:41:09;;;;;;;5.30;2.40;;;;;;;21.85;58.88;100146.59;5062743;28;20186;-66
2023/09/20 01:43:36;;;;;;;8.93;2.30;;;;;;;21.86;59.29;100149.06;5090634;28;20178;-66
2023/09/20 01:46:03;;;;;;;4.10;1.80;;;;;;;21.83;59.05;100149.88;5090521;28;20178;-66
2023/09/20 01:48:28;;;;;;;5.73;2.70;;;;;;;21.83;59.15;100149.88;5071368;28;20993;-66
2023/09/20 01:50:54;;;;;;;2.80;1.70;;;;;;;21.80;59.08;100142.06;5037273;28;20421;-66
2023/09/20 01:53:19;;;;;;;4.40;2.33;;;;;;;21.79;58.73;100145.34;5069731;28;20183;-66
2023/09/20 01:55:44;;;;;;;7.37;2.40;;;;;;;21.79;59.24;100146.19;5072366;28;20237;-66
2023/09/20 01:58:12;;;;;;;5.97;2.33;;;;;;;21.77;58.76;100136.31;5042240;28;20569;-66
2023/09/20 02:00:42;;;;;;;8.63;1.93;;;;;;;21.77;58.78;100131.38;5052623;28;20265;-66
2023/09/20 02:03:13;;;;;;;5.30;2.40;;;;;;;21.76;58.84;100124.00;5044105;28;20430;-66
2023/09/20 02:05:39;;;;;;;6.27;2.03;;;;;;;21.79;59.26;100126.06;5078480;28;20431;-66
2023/09/20 02:08:05;;;;;;;3.60;1.90;;;;;;;21.80;58.82;100121.94;5071978;28;20416;-66
2023/09/20 02:10:31;;;;;;;3.97;2.33;;;;;;;21.81;59.17;100126.47;5094119;28;20199;-66
2023/09/20 02:12:57;;;;;;;4.50;1.90;;;;;;;21.81;59.00;100123.59;5049766;28;20954;-66
2023/09/20 02:15:24;;;;;;;4.53;1.50;;;;;;;21.82;58.98;100118.69;5086030;28;20221;-65
2023/09/20 02:17:50;;;;;;;3.53;1.53;;;;;;;21.81;58.60;100117.84;5060631;28;20195;-66
2023/09/20 02:20:23;;;;;;;4.73;1.93;;;;;;;21.81;59.15;100117.84;5051747;28;20790;-66
2023/09/20 02:22:50;;;;;;;6.37;1.77;;;;;;;21.81;59.80;100114.97;5068309;28;20175;-66
2023/09/20 02:25:20;;;;;;;5.03;2.20;;;;;;;21.82;59.21;100116.59;5079453;28;20435;-66
2023/09/20 02:27:48;;;;;;;3.20;1.90;;;;;;;21.81;59.24;100114.97;5078310;28;20425;-65
2023/09/20 02:30:19;;;;;;;5.07;1.97;;;;;;;21.80;59.24;100121.94;5071742;28;20828;-66
2023/09/20 02:32:51;;;;;;;3.93;1.93;;;;;;;21.80;59.06;100109.63;5042054;28;20417;-66
2023/09/20 02:35:16;;;;;;;3.50;1.87;;;;;;;21.80;59.65;100110.47;5088349;28;20431;-66
2023/09/20 02:37:43;;;;;;;5.87;2.43;;;;;;;21.78;59.58;100110.03;5076964;28;20456;-66
2023/09/20 02:40:17;;;;;;;8.40;2.73;;;;;;;21.80;59.19;100119.09;5080119;28;20262;-66
2023/09/20 02:42:52;;;;;;;3.87;2.03;;;;;;;21.80;60.15;100110.47;5052674;28;20455;-66
2023/09/20 02:45:19;;;;;;;4.90;1.93;;;;;;;21.79;58.88;100111.69;5050900;28;21075;-66
2023/09/20 02:47:46;;;;;;;7.57;1.83;;;;;;;21.79;59.68;100100.19;5075786;28;20933;-66
2023/09/20 02:50:16;;;;;;;5.30;2.20;;;;;;;21.79;59.47;100103.06;5062656;28;20428;-66
2023/09/20 02:52:42;;;;;;;7.37;1.80;;;;;;;21.80;59.25;100098.97;5064956;28;20414;-66
2023/09/20 02:55:08;;;;;;;5.27;1.90;;;;;;;21.79;59.76;100097.31;5069469;28;20899;-66
2023/09/20 02:57:37;;;;;;;7.30;2.00;;;;;;;21.81;59.85;100089.09;5071137;28;20463;-65
2023/09/20 03:00:06;;;;;;;5.27;2.60;;;;;;;21.80;59.91;100084.59;5051116;28;20175;-65
2023/09/20 03:02:32;;;;;;;3.83;1.90;;;;;;;21.80;60.51;100096.09;5068530;28;20422;-65
2023/09/20 03:04:58;;;;;;;4.60;2.43;;;;;;;21.81;60.23;100088.28;5066182;28;20429;-65
2023/09/20 03:07:23;;;;;;;5.53;2.43;;;;;;;21.80;60.19;100081.72;5068632;28;20417;-65
2023/09/20 03:09:49;;;;;;;7.90;2.20;;;;;;;21.80;60.12;100089.50;5068222;28;20195;-65
2023/09/20 03:12:14;;;;;;;4.50;2.20;;;;;;;21.78;60.02;100089.91;5090656;28;20197;-65
2023/09/20 03:14:41;;;;;;;7.37;2.00;;;;;;;21.77;59.64;100093.22;5067470;28;20233;-65
2023/09/20 03:17:07;;;;;;;6.20;2.20;;;;;;;21.75;59.29;100087.88;5071322;28;20197;-65
2023/09/20 03:19:33;;;;;;;5.33;2.37;;;;;;;21.72;59.70;100091.53;5073579;28;20724;-65
2023/09/20 03:21:59;;;;;;;2.60;1.60;;;;;;;21.71;59.57;100084.16;5070248;28;21074;-65
2023/09/20 03:24:26;;;;;;;6.43;2.00;;;;;;;21.70;58.90;100079.66;5069043;28;20402;-65
2023/09/20 03:26:52;;;;;;;4.70;2.20;;;;;;;21.70;59.35;100078.81;5080863;28;20479;-65
2023/09/20 03:29:18;;;;;;;3.60;1.70;;;;;;;21.69;58.91;100071.44;5076596;28;20815;-65
2023/09/20 03:31:44;;;;;;;6.87;2.23;;;;;;;21.69;59.42;100063.66;5050745;28;20426;-65
2023/09/20 03:34:11;;;;;;;3.37;2.10;;;;;;;21.71;59.72;100069.78;5068843;28;20478;-65
2023/09/20 03:36:41;;;;;;;5.73;1.90;;;;;;;21.71;59.37;100072.66;5063968;28;20454;-65
2023/09/20 03:39:11;;;;;;;6.43;2.27;;;;;;;21.72;59.73;100073.50;5061825;28;20429;-65
2023/09/20 03:41:38;;;;;;;3.30;1.87;;;;;;;21.71;59.35;100064.03;5072278;28;20440;-65
2023/09/20 03:44:05;;;;;;;3.37;2.00;;;;;;;21.70;59.20;100070.19;5088627;28;20420;-65
2023/09/20 03:46:32;;;;;;;5.43;2.60;;;;;;;21.70;59.98;100065.28;5086924;28;20739;-65
2023/09/20 03:48:57;;;;;;;3.93;1.67;;;;;;;21.69;59.26;100060.78;5034835;28;20500;-65
2023/09/20 03:51:23;;;;;;;3.30;1.77;;;;;;;21.69;59.90;100066.53;5069000;28;20417;-65
2023/09/20 03:53:49;;;;;;;5.07;2.07;;;;;;;21.69;59.25;100057.91;5082291;28;20181;-65
2023/09/20 03:56:15;;;;;;;4.60;2.10;;;;;;;21.68;59.41;100064.84;5037735;28;20190;-65
2023/09/20 03:58:41;;;;;;;4.07;2.00;;;;;;;21.64;59.31;100061.13;5043500;28;20516;-65
2023/09/20 04:01:08;;;;;;;4.60;1.90;;;;;;;21.63;59.06;100064.41;5046549;28;20637;-65
2023/09/20 04:03:37;;;;;;;6.20;2.37;;;;;;;21.62;59.34;100060.72;5094508;28;20473;-65
2023/09/20 04:06:02;;;;;;;5.67;2.20;;;;;;;21.62;59.67;100057.84;5050157;28;20409;-65
2023/09/20 04:08:28;;;;;;;4.63;2.10;;;;;;;21.61;59.51;100061.09;5085470;28;20493;-66
2023/09/20 04:10:54;;;;;;;4.83;2.07;;;;;;;21.59;59.52;100057.84;5053716;28;20210;-66
2023/09/20 04:13:20;;;;;;;3.50;1.70;;;;;;;21.61;60.09;100056.19;5034363;28;20288;-66
2023/09/20 04:15:45;;;;;;;3.77;2.10;;;;;;;21.61;59.19;100046.75;5060261;28;20910;-66
2023/09/20 04:18:12;;;;;;;5.53;2.03;;;;;;;21.62;59.74;100042.66;5075520;28;20202;-66
2023/09/20 04:20:39;;;;;;;5.13;1.97;;;;;;;21.61;59.38;100041.00;5079615;28;20528;-66
2023/09/20 04:23:05;;;;;;;4.23;1.87;;;;;;;21.62;59.44;100048.41;5073024;28;20435;-66
2023/09/20 04:25:30;;;;;;;5.20;1.87;;;;;;;21.60;59.32;100037.31;5070432;28;20440;-66
2023/09/20 04:27:56;;;;;;;4.83;1.97;;;;;;;21.59;59.60;100035.69;5037446;28;20687;-66
2023/09/20 04:30:21;;;;;;;3.80;2.10;;;;;;;21.59;59.67;100035.69;5064085;28;20192;-66
2023/09/20 04:32:47;;;;;;;4.43;2.03;;;;;;;21.58;59.54;100038.97;5091508;28;20169;-66
2023/09/20 04:35:13;;;;;;;5.43;1.93;;;;;;;21.60;59.39;100045.09;5080141;28;20232;-66
2023/09/20 04:37:38;;;;;;;4.80;2.00;;;;;;;21.58;59.45;100034.03;5062676;28;20203;-66
2023/09/20 04:40:07;;;;;;;3.43;2.13;;;;;;;21.55;59.56;100031.97;5081259;28;20189;-66
2023/09/20 04:42:33;;;;;;;4.07;2.00;;;;;;;21.52;60.02;100029.91;5066455;28;20195;-66
2023/09/20 04:44:59;;;;;;;5.07;2.00;;;;;;;21.54;59.50;100026.63;5053889;28;20417;-66
2023/09/20 04:47:24;;;;;;;5.00;1.83;;;;;;;21.54;59.55;100036.09;5053726;28;20151;-66
2023/09/20 04:49:50;;;;;;;5.30;2.00;;;;;;;21.53;60.03;100034.41;5074484;28;20491;-66
2023/09/20 04:52:16;;;;;;;6.10;2.17;;;;;;;21.54;59.84;100036.09;5099689;28;20186;-66
2023/09/20 04:54:43;;;;;;;5.00;2.10;;;;;;;21.53;59.93;100025.81;5060328;28;20466;-66
2023/09/20 04:57:09;;;;;;;4.40;1.90;;;;;;;21.52;59.88;100024.16;5069746;28;20206;-66
2023/09/20 04:59:36;;;;;;;3.93;2.03;;;;;;;21.51;59.61;100034.03;5037871;28;20488;-66
2023/09/20 05:02:02;;;;;;;4.97;2.00;;;;;;;21.50;59.59;100035.25;5093667;28;20186;-66
2023/09/20 05:04:29;;;;;;;3.13;2.07;;;;;;;21.50;59.78;100032.38;5089753;28;20444;-66
2023/09/20 05:06:55;;;;;;;3.60;2.03;;;;;;;21.50;59.93;100034.41;5090927;28;20428;-66
2023/09/20 05:09:20;;;;;;;4.40;1.70;;;;;;;21.49;59.98;100030.75;5063751;28;20439;-66
2023/09/20 05:11:45;;;;;;;3.63;2.13;;;;;;;21.49;59.80;100036.50;5078756;28;20203;-65
2023/09/20 05:14:11;;;;;;;3.30;1.90;;;;;;;21.49;59.92;100033.63;5081105;28;20256;-66
2023/09/20 05:16:36;;;;;;;5.40;2.33;;;;;;;21.47;59.94;100036.06;5070163;28;20207;-66
2023/09/20 05:19:03;;;;;;;3.77;2.03;;;;;;;21.47;60.21;100036.06;5048468;28;20234;-66
2023/09/20 05:21:28;;;;;;;3.83;1.80;;;;;;;21.54;60.86;100026.63;5078479;28;20235;-65
2023/09/20 05:23:54;;;;;;;4.53;2.23;;;;;;;21.67;60.29;100034.44;5076433;28;20916;-66
2023/09/20 05:26:19;;;;;;;5.60;2.53;;;;;;;22.03;62.89;100039.00;5085715;28;20190;-66
2023/09/20 05:28:46;;;;;;;10.87;4.57;;;;;;;22.45;63.62;100038.19;5058621;28;20185;-65
2023/09/20 05:31:13;;;;;;;6.87;3.47;;;;;;;22.30;64.37;100036.53;5058458;28;20186;-65
2023/09/20 05:33:39;;;;;;;8.73;3.03;;;;;;;22.09;64.22;100030.81;5084267;28;20499;-66
2023/09/20 05:36:05;;;;;;;5.90;2.50;;;;;;;21.87;63.59;100026.31;5080541;28;20432;-68
2023/09/20 05:38:30;;;;;;;5.97;2.80;;;;;;;21.58;63.08;100022.53;5057614;28;20206;-66
2023/09/20 05:40:56;;;;;;;7.33;2.60;;;;;;;21.56;63.75;100025.00;5069327;28;20437;-67
2023/09/20 05:43:21;;;;;;;10.73;2.77;;;;;;;21.23;63.15;100021.66;5054799;28;20162;-66
2023/09/20 05:45:47;;;;;;;6.13;2.23;;;;;;;21.13;63.20;100031.06;5091184;28;20190;-65
2023/09/20 05:48:12;;;;;;;5.60;2.13;;;;;;;21.23;63.61;100033.94;5067062;28;20167;-65
2023/09/20 05:50:38;;;;;;;4.90;2.20;;;;;;;20.81;64.11;100036.63;5071153;28;20205;-65
2023/09/20 05:53:11;;;;;;;5.70;2.27;;;;;;;21.02;64.09;100036.75;5068731;28;20190;-65
2023/09/20 05:55:40;;;;;;;6.73;2.10;;;;;;;20.90;63.46;100031.38;5067521;28;20802;-65
2023/09/20 05:58:06;;;;;;;6.37;2.33;;;;;;;21.12;63.06;100032.28;5057421;28;20878;-65
2023/09/20 06:00:31;;;;;;;7.13;1.77;;;;;;;21.15;62.98;100037.19;5067402;28;20432;-65
2023/09/20 06:02:58;;;;;;;4.30;2.30;;;;;;;21.31;62.26;100041.34;5054197;28;21089;-65
2023/09/20 06:05:24;;;;;;;7.03;2.33;;;;;;;21.45;62.75;100040.56;5069246;28;20186;-65
2023/09/20 06:07:51;;;;;;;7.43;2.90;;;;;;;21.35;63.69;100047.94;5067029;28;20884;-65
2023/09/20 06:10:17;;;;;;;3.70;1.83;;;;;;;21.29;63.48;100055.31;5085580;28;20210;-65
2023/09/20 06:12:43;;;;;;;6.93;2.70;;;;;;;21.35;63.46;100056.56;5076848;28;20458;-65
2023/09/20 06:15:13;;;;;;;6.60;2.73;;;;;;;21.51;63.23;100048.38;5082242;28;20970;-65
2023/09/20 06:17:38;;;;;;;4.90;1.97;;;;;;;21.43;63.42;100046.72;5054300;28;20854;-65
2023/09/20 06:20:07;;;;;;;5.53;2.10;;;;;;;21.16;64.43;100050.31;5070185;28;20425;-65
2023/09/20 06:22:33;;;;;;;11.10;2.20;;;;;;;21.18;64.03;100048.69;5072358;28;20186;-65
2023/09/20 06:24:58;;;;;;;4.93;2.03;;;;;;;21.12;64.19;100053.19;5079915;28;20447;-65
2023/09/20 06:27:33;;;;;;;3.30;1.87;;;;;;;21.12;63.81;100047.44;5069560;28;20162;-64
2023/09/20 06:30:13;;;;;;;7.40;3.00;;;;;;;20.99;64.57;100051.09;5035440;28;20641;-64
2023/09/20 06:32:42;;;;;;;10.13;2.00;;;;;;;21.09;63.96;100039.66;5060417;28;20440;-64
2023/09/20 06:35:09;;;;;;;6.53;2.37;;;;;;;21.10;63.99;100041.28;5035866;28;20915;-65
2023/09/20 06:37:35;;;;;;;4.33;1.80;;;;;;;20.78;65.17;100037.41;5084788;28;20453;-64
2023/09/20 06:40:01;;;;;;;7.30;2.47;;;;;;;20.80;65.16;100032.13;5072182;28;21035;-65
2023/09/20 06:42:29;;;;;;;4.60;1.97;;;;;;;21.15;63.79;100038.03;5064534;28;20174;-64
2023/09/20 06:44:55;;;;;;;5.80;1.97;;;;;;;21.31;62.88;100041.34;5074722;28;20178;-64
2023/09/20 06:47:24;;;;;;;5.50;2.17;;;;;;;21.41;63.13;100031.94;5070200;28;20433;-64
2023/09/20 06:49:50;;;;;;;4.00;1.90;;;;;;;21.43;62.57;100032.34;5066598;28;20439;-64
2023/09/20 06:52:15;;;;;;;6.37;1.93;;;;;;;21.34;62.88;100029.06;5071027;28;20478;-64
2023/09/20 06:54:41;;;;;;;7.80;2.10;;;;;;;21.40;62.62;100026.59;5089386;28;20439;-64
2023/09/20 06:57:07;;;;;;;7.17;2.13;;;;;;;21.43;63.25;100031.53;5059022;28;20248;-64
2023/09/20 06:59:33;;;;;;;4.00;1.80;;;;;;;21.42;62.47;100021.28;5051373;28;20159;-64
2023/09/20 07:02:02;;;;;;;5.67;1.97;;;;;;;21.43;62.62;100020.84;5048952;28;20429;-64
2023/09/20 07:04:28;;;;;;;4.97;1.93;;;;;;;21.47;62.73;100027.44;5069181;28;20238;-64
2023/09/20 07:07:03;;;;;;;5.30;2.00;;;;;;;21.49;62.63;100030.75;5071934;28;20904;-64
2023/09/20 07:09:30;;;;;;;3.47;2.00;;;;;;;21.47;62.46;100027.44;5087451;28;20186;-64
2023/09/20 07:12:01;;;;;;;5.73;2.00;;;;;;;21.47;62.61;100024.56;5077824;28;20467;-64
2023/09/20 07:14:28;;;;;;;5.40;2.00;;;;;;;21.48;62.87;100025.41;5068869;28;20500;-64
2023/09/20 07:16:55;;;;;;;3.97;1.93;;;;;;;21.38;62.99;100018.38;5059329;28;20482;-64
2023/09/20 07:19:23;;;;;;;5.17;1.60;;;;;;;21.43;63.15;100020.84;5086371;28;20432;-64
2023/09/20 07:21:50;;;;;;;3.70;1.90;;;;;;;21.25;64.21;100017.16;5081441;28;20256;-64
2023/09/20 07:24:15;;;;;;;4.77;2.27;;;;;;;21.39;63.80;100022.09;5075079;28;20445;-65
2023/09/20 07:26:43;;;;;;;6.40;2.60;;;;;;;21.40;63.57;100018.81;5069290;28;20190;-64
2023/09/20 07:29:15;;;;;;;4.63;2.20;;;;;;;21.41;63.50;100023.34;5063912;28;21061;-64
2023/09/20 07:31:41;;;;;;;4.43;1.77;;;;;;;;;;5113199;28;20396;-64
2023/09/20 07:34:17;;;;;;;8.10;2.53;;;;;;;21.52;63.46;100011.88;5110667;28;20431;-64
2023/09/20 07:36:43;;;;;;;3.60;1.60;;;;;;;21.53;63.61;100019.25;5096418;28;20202;-64
2023/09/20 07:39:17;;;;;;;3.87;2.30;;;;;;;21.53;63.23;100017.19;5055808;28;20422;-64
2023/09/20 07:41:46;;;;;;;4.33;2.10;;;;;;;21.41;63.85;100006.09;5084392;28;20428;-64
2023/09/20 07:44:13;;;;;;;5.13;1.93;;;;;;;21.36;63.86;100009.38;5083260;28;21204;-64
2023/09/20 07:46:39;;;;;;;8.70;2.07;;;;;;;;;;5087616;28;20573;-64
2023/09/20 07:49:09;;;;;;;3.73;1.70;;;;;;;21.41;63.77;100005.25;5085831;28;21297;-65
2023/09/20 07:51:37;;;;;;;4.00;1.70;;;;;;;21.38;63.75;100004.03;5081584;28;20178;-64
2023/09/20 07:54:05;;;;;;;3.23;1.47;;;;;;;21.27;64.16;100005.25;5059641;28;20979;-65
2023/09/20 07:56:30;;;;;;;4.50;2.20;;;;;;;21.19;64.57;100001.53;5071827;28;20575;-64
2023/09/20 07:58:56;;;;;;;7.13;2.07;;;;;;;21.28;63.35;99996.22;5073328;28;20425;-64
2023/09/20 08:01:22;;;;;;;4.77;2.10;;;;;;;21.37;63.72;100004.47;5082455;28;20190;-64
2023/09/20 08:03:52;;;;;;;3.90;2.40;;;;;;;21.43;63.45;100008.56;5086696;28;20237;-64
2023/09/20 08:06:18;;;;;;;5.30;2.50;;;;;;;21.21;64.15;100004.81;5045739;28;20931;-64
2023/09/20 08:08:43;;;;;;;4.93;2.53;;;;;;;21.23;63.66;100002.34;5077046;28;20453;-64
2023/09/20 08:11:09;;;;;;;5.47;2.63;;;;;;;21.19;63.75;100004.41;5089705;28;20511;-64
2023/09/20 08:13:34;;;;;;;4.87;2.47;;;;;;;21.39;63.60;100014.31;5072725;28;20187;-64
2023/09/20 08:16:02;;;;;;;8.43;2.87;;;;;;;21.41;63.67;100011.00;5058986;28;20265;-64
2023/09/20 08:21:12;;;;;;;4.17;2.17;;;;;;;21.40;63.33;100015.94;5064499;28;21031;-64
2023/09/20 09:02:07;;;;;;;3.00;1.80;;;;;;;21.40;64.06;100012.25;5073987;28;20423;-65
2023/09/20 09:04:33;;;;;;;4.47;2.20;;;;;;;21.41;63.27;100017.59;5064082;28;21206;-64
2023/09/20 09:06:58;;;;;;;3.33;1.70;;;;;;;21.31;63.30;100006.91;5070921;28;20417;-64
2023/09/20 09:09:23;;;;;;;4.83;2.23;;;;;;;21.41;63.14;100003.22;5057591;28;20175;-64
2023/09/20 09:11:49;;;;;;;3.60;2.07;;;;;;;21.44;62.81;100002.41;5055850;28;20569;-64
2023/09/20 09:14:14;;;;;;;4.90;2.10;;;;;;;21.47;62.41;100007.34;5088555;28;20721;-64
2023/09/20 09:16:40;;;;;;;3.73;1.73;;;;;;;21.43;62.38;99997.09;5072053;28;21029;-64
2023/09/20 09:19:07;;;;;;;5.53;1.80;;;;;;;21.47;62.81;100004.47;5084052;28;20198;-64
2023/09/20 09:21:34;;;;;;;5.10;2.20;;;;;;;21.53;63.12;100007.75;5071522;28;20654;-65
2023/09/20 09:24:00;;;;;;;3.00;1.60;;;;;;;21.60;63.01;100002.84;5053054;28;20990;-64
2023/09/20 09:26:26;;;;;;;3.77;2.00;;;;;;;21.61;62.82;100009.41;5089966;28;20482;-64
2023/09/20 09:28:52;;;;;;;4.77;1.53;;;;;;;21.60;63.08;99997.09;5072229;28;20183;-64
2023/09/20 09:31:17;;;;;;;2.87;1.77;;;;;;;21.60;62.74;99991.34;5081924;28;20452;-64
2023/09/20 09:33:43;;;;;;;4.07;1.93;;;;;;;21.58;62.39;99987.25;5083028;28;20193;-64
2023/09/20 09:36:10;;;;;;;7.10;2.07;;;;;;;21.67;63.06;99996.28;5092483;28;20205;-65
2023/09/20 09:38:36;;;;;;;3.80;1.93;;;;;;;21.66;62.84;99989.72;5053068;28;20287;-64
2023/09/20 09:41:02;;;;;;;3.83;1.77;;;;;;;21.66;63.27;99986.84;5086786;28;20440;-65
2023/09/20 09:43:28;;;;;;;4.47;1.80;;;;;;;21.68;62.99;99981.53;5035421;28;20182;-65
2023/09/20 09:45:54;;;;;;;3.97;1.80;;;;;;;21.69;63.37;99968.00;5059617;28;20178;-65
2023/09/20 09:48:20;;;;;;;3.57;1.83;;;;;;;21.70;63.40;99973.34;5067102;28;20421;-65
2023/09/20 09:50:46;;;;;;;3.80;1.70;;;;;;;21.72;63.53;99967.97;5041632;28;20799;-65
2023/09/20 09:53:15;;;;;;;5.50;1.50;;;;;;;21.76;63.57;99959.34;5073326;28;20645;-65
2023/09/20 09:55:40;;;;;;;3.80;2.00;;;;;;;21.81;63.82;99958.94;5071979;28;20271;-65
2023/09/20 09:58:08;;;;;;;4.90;2.10;;;;;;;21.83;63.38;99957.28;5080191;28;21030;-64
2023/09/20 10:00:34;;;;;;;7.77;2.10;;;;;;;21.89;62.94;99961.44;5054211;28;20239;-64
2023/09/20 10:03:01;;;;;;;4.07;2.10;;;;;;;21.91;62.72;99956.06;5055673;28;20440;-65
2023/09/20 10:05:27;;;;;;;5.40;2.20;;;;;;;21.91;62.00;99961.81;5053387;28;20193;-64
2023/09/20 10:07:57;;;;;;;5.10;2.47;;;;;;;21.96;61.46;99949.91;5033182;28;20548;-64
2023/09/20 10:10:24;;;;;;;4.70;1.90;;;;;;;21.98;61.67;99958.94;5056786;28;20231;-64
2023/09/20 10:12:49;;;;;;;4.20;2.07;;;;;;;21.98;61.80;99950.31;5078708;28;20433;-64
2023/09/20 10:15:15;;;;;;;6.30;1.80;;;;;;;22.03;61.33;99952.75;5079732;28;20566;-64
2023/09/20 10:17:45;;;;;;;6.20;2.10;;;;;;;22.03;60.45;99941.25;5073677;28;20271;-64
2023/09/20 10:20:15;;;;;;;7.53;1.97;;;;;;;22.02;60.53;99933.88;5087827;28;20432;-64
2023/09/20 10:22:40;;;;;;;4.63;1.70;;;;;;;22.07;60.50;99924.84;5079276;28;20448;-64
2023/09/20 10:25:45;;;;;;;4.90;2.40;;;;;;;22.11;60.17;99914.16;5060074;28;21236;-64
2023/09/20 10:28:10;;;;;;;3.53;1.70;;;;;;;22.22;61.07;99920.69;4994675;28;20201;-64
2023/09/20 10:31:02;;;;;;;3.83;2.10;;;;;;;22.21;60.52;99912.47;4971540;28;20443;-64
2023/09/20 10:33:51;;;;;;;5.60;1.97;;;;;;;22.18;60.58;99910.44;5045049;28;20210;-64
2023/09/20 10:36:23;;;;;;;5.93;2.57;;;;;;;22.22;60.63;99914.94;5076413;28;20845;-64
2023/09/20 10:38:48;;;;;;;3.53;2.10;;;;;;;22.18;61.56;99904.69;5056401;28;20548;-65
2023/09/20 10:41:14;;;;;;;4.50;2.03;;;;;;;22.24;60.85;99898.09;5072506;28;20983;-64
2023/09/20 10:43:41;;;;;;;4.30;2.07;;;;;;;22.30;60.08;99902.19;5077189;28;20183;-64
2023/09/20 10:46:15;;;;;;;5.30;2.07;;;;;;;22.38;61.16;99888.59;5081239;28;20444;-65
2023/09/20 10:48:43;;;;;;;5.20;1.80;;;;;;;22.25;61.22;99891.09;5088531;28;20424;-64
2023/09/20 10:51:09;;;;;;;5.13;2.03;;;;;;;22.24;60.87;99883.72;5075968;28;20431;-64
2023/09/20 10:53:52;;;;;;;7.23;2.20;;;;;;;22.29;61.15;99889.03;5051556;28;20912;-64
2023/09/20 10:56:43;;;;;;;2.90;1.70;;;;;;;22.32;60.82;99885.31;5074450;28;20178;-64
2023/09/20 10:59:16;;;;;;;4.70;1.90;;;;;;;22.33;59.18;99875.44;5081590;28;20416;-64
2023/09/20 11:01:56;;;;;;;3.70;1.50;;;;;;;22.32;59.51;99881.63;5086026;28;20996;-64
2023/09/20 11:04:21;;;;;;;3.13;1.57;;;;;;;22.34;59.15;99871.34;5086894;28;20432;-64
2023/09/20 11:06:50;;;;;;;4.53;2.00;;;;;;;22.41;57.94;99873.34;5079293;28;20440;-65
2023/09/20 11:09:15;;;;;;;5.37;2.50;;;;;;;22.37;58.44;99864.75;5053268;28;20209;-64
2023/09/20 11:11:42;;;;;;;4.43;1.50;;;;;;;22.39;57.98;99864.34;5073497;28;20429;-65
2023/09/20 11:14:08;;;;;;;5.80;1.43;;;;;;;22.39;58.38;99864.34;5048189;28;20238;-65
2023/09/20 11:16:34;;;;;;;7.33;1.70;;;;;;;22.52;57.54;99857.72;5055268;28;20433;-65
2023/09/20 11:18:59;;;;;;;5.93;2.10;;;;;;;22.44;58.45;99852.41;5048099;28;20486;-64
2023/09/20 11:21:24;;;;;;;2.90;1.90;;;;;;;22.58;58.91;99855.25;5041894;28;20190;-65
2023/09/20 11:23:51;;;;;;;3.67;1.60;;;;;;;22.73;57.63;99848.16;5052829;28;20178;-64
2023/09/20 11:26:28;;;;;;;5.03;1.73;;;;;;;22.72;57.79;99846.53;5049795;28;20266;-65
2023/09/20 11:28:54;;;;;;;7.37;1.90;;;;;;;22.60;58.36;99844.94;5049263;28;20436;-64
2023/09/20 11:31:30;;;;;;;9.20;1.90;;;;;;;22.65;58.46;99846.56;5055946;28;20433;-65
2023/09/20 11:34:03;;;;;;;3.97;1.90;;;;;;;22.71;58.79;99833.34;5068934;28;20182;-65
2023/09/20 11:36:53;;;;;;;3.70;1.90;;;;;;;22.60;58.29;99827.69;5048071;28;20808;-65
2023/09/20 11:39:27;;;;;;;3.23;1.63;;;;;;;22.63;58.46;99821.06;5063275;28;20436;-64
2023/09/20 11:41:58;;;;;;;4.00;1.77;;;;;;;22.65;58.36;99818.63;5068359;28;20514;-64
2023/09/20 11:44:24;;;;;;;3.03;1.60;;;;;;;22.64;59.27;99813.28;5061960;28;20955;-65
2023/09/20 11:46:54;;;;;;;4.93;2.40;;;;;;;22.65;58.41;99821.50;5065407;28;20456;-64
2023/09/20 11:49:19;;;;;;;6.10;2.10;;;;;;;22.71;57.89;99816.09;5058367;28;20424;-65
2023/09/20 11:51:45;;;;;;;5.63;1.80;;;;;;;22.69;57.42;99807.06;5053906;28;20758;-65
2023/09/20 11:54:10;;;;;;;4.60;2.00;;;;;;;22.67;58.02;99804.59;5048916;28;20192;-65
2023/09/20 11:56:37;;;;;;;5.00;2.07;;;;;;;22.66;57.92;99799.28;5059798;28;20190;-65
2023/09/20 11:59:06;;;;;;;7.60;2.47;;;;;;;22.68;57.33;99800.47;5064641;28;20243;-65
2023/09/20 12:01:33;;;;;;;3.20;1.70;;;;;;;22.70;57.65;99798.03;5056660;28;20454;-65
2023/09/20 12:03:59;;;;;;;5.23;1.80;;;;;;;22.86;56.53;99792.56;5052855;28;20429;-65
2023/09/20 12:06:25;;;;;;;3.37;1.80;;;;;;;22.78;56.68;99793.84;5068014;28;20449;-65
2023/09/20 12:08:52;;;;;;;5.97;1.80;;;;;;;22.81;55.95;99790.13;5062867;28;20491;-65
2023/09/20 12:11:17;;;;;;;3.57;1.80;;;;;;;22.82;56.61;99788.09;5052767;28;20208;-65